Time;durP1;ratioP1;P1;durP2;ratioP2;P2;SDS_P1;SDS_P2;PMS_P1;PMS_P2;Temp;Humidity;BMP_temperature;BMP_pressure;BME280_temperature;BME280_humidity;BME280_pressure;Samples;Min_cycle;Max_cycle;Signal;HPM_P1;HPM_P2
2023/07/08 05:27:30;;;;;;;2250.00;999.90;;;;;;;21.43;51.64;96705.00;2084899;28;20557;-58
2023/07/08 05:29:50;;;;;;;867.47;781.53;;;;;;;21.59;50.85;96715.16;2088500;27;21123;-59
2023/07/08 05:32:09;;;;;;;836.88;758.30;;;;;;;21.80;51.15;96725.66;2086283;28;20563;-59
2023/07/08 05:34:33;;;;;;;1240.40;999.90;;;;;;;21.89;50.62;96716.91;2084132;28;20584;-59
2023/07/08 05:37:01;;;;;;;1180.00;999.90;;;;;;;22.07;50.80;96718.84;2102606;27;20569;-59
2023/07/08 05:39:32;;;;;;;1156.88;999.90;;;;;;;22.06;49.94;96709.22;2088046;28;20551;-59
2023/07/08 05:42:06;;;;;;;1232.00;999.90;;;;;;;22.28;49.93;96716.94;2085516;28;20569;-59
2023/07/08 05:44:38;;;;;;;1257.70;999.90;;;;;;;22.60;50.15;96725.59;2089215;28;20559;-59
2023/07/08 05:47:13;;;;;;;1286.65;999.90;;;;;;;22.69;49.97;96722.09;2090067;28;20582;-59
2023/07/08 05:49:49;;;;;;;1159.28;999.90;;;;;;;22.72;49.96;96727.13;2091153;28;20572;-59
2023/07/08 05:52:28;;;;;;;1128.68;994.30;;;;;;;22.69;49.74;96730.09;2094208;27;20567;-59
2023/07/08 05:54:59;;;;;;;941.15;851.38;;;;;;;22.95;49.62;96748.09;2095930;27;20559;-59
2023/07/08 05:57:35;;;;;;;749.60;678.58;;;;;;;23.12;48.71;96744.69;2100870;27;20571;-58
2023/07/08 06:00:10;;;;;;;1292.35;955.85;;;;;;;23.15;47.30;96763.06;2081987;28;20566;-59
2023/07/08 06:02:49;;;;;;;1164.30;998.30;;;;;;;22.95;47.71;96740.94;2102582;27;20564;-59
2023/07/08 06:05:21;;;;;;;1555.53;999.90;;;;;;;23.23;47.27;96758.84;2095057;27;20563;-59
2023/07/08 06:08:06;;;;;;;1643.80;999.90;;;;;;;23.49;47.82;96769.72;2084613;28;20679;-59
2023/07/08 06:09:07;;;;;;;1616.28;999.90;;;;;;;23.60;47.31;96766.84;2083426;28;20197;-59
2023/07/08 06:11:38;;;;;;;1403.90;997.97;;;;;;;23.71;47.40;96754.31;2082524;28;20581;-59
2023/07/08 06:12:40;;;;;;;1642.15;999.90;;;;;;;23.71;47.05;96768.47;2080102;28;20220;-59
2023/07/08 06:15:20;;;;;;;1081.28;975.42;;;;;;;23.72;47.18;96754.16;2093289;27;21199;-59
2023/07/08 06:16:21;;;;;;;1158.32;997.80;;;;;;;23.74;47.26;96759.34;2090987;28;20276;-59
2023/07/08 06:17:40;;;;;;;1269.00;999.90;;;;;;;23.97;47.31;96754.47;2090360;28;20204;-59
2023/07/08 06:20:28;;;;;;;503.80;465.92;;;;;;;24.13;46.29;96759.16;2085664;27;20565;-58
2023/07/08 06:21:30;;;;;;;767.97;706.17;;;;;;;24.10;46.39;96762.13;2079451;28;20246;-59
2023/07/08 06:22:31;;;;;;;236.52;218.20;;;;;;;24.08;46.13;96754.25;2078527;28;20652;-58
2023/07/08 06:23:47;;;;;;;617.22;571.00;;;;;;;24.19;46.51;96761.22;2079244;28;20201;-58
2023/07/08 06:26:30;;;;;;;861.92;785.05;;;;;;;24.38;46.95;96770.91;2116643;27;20552;-58
2023/07/08 06:27:33;;;;;;;512.90;464.15;;;;;;;24.17;46.93;96768.50;2114497;28;20314;-61
2023/07/08 06:28:34;;;;;;;707.58;646.65;;;;;;;24.29;46.55;96777.97;2113760;28;20198;-61
2023/07/08 06:29:36;;;;;;;875.63;795.47;;;;;;;24.16;46.84;96774.84;2111236;28;20194;-61
2023/07/08 06:30:38;;;;;;;1197.00;999.90;;;;;;;24.27;47.17;96773.78;2095947;28;20200;-61
2023/07/08 06:31:39;;;;;;;1151.68;984.13;;;;;;;24.38;47.11;96773.56;2096606;28;20501;-61
2023/07/08 06:32:41;;;;;;;838.92;748.28;;;;;;;24.35;46.56;96773.03;2096857;28;20286;-61
2023/07/08 06:33:42;;;;;;;1102.72;834.90;;;;;;;24.29;46.96;96774.50;2098479;28;20195;-61
2023/07/08 06:34:44;;;;;;;396.98;358.98;;;;;;;24.43;46.95;96775.78;2096407;28;20195;-61
2023/07/08 06:35:45;;;;;;;1107.68;976.08;;;;;;;24.62;46.85;96774.78;2095610;28;20677;-61
2023/07/08 06:36:47;;;;;;;449.38;403.73;;;;;;;24.51;46.88;96780.38;2097514;28;20325;-61
2023/07/08 06:37:48;;;;;;;1010.47;909.95;;;;;;;24.34;47.17;96774.00;2099637;28;20211;-61
2023/07/08 06:38:50;;;;;;;1262.07;999.90;;;;;;;24.43;47.29;96778.47;2100035;28;20191;-61
2023/07/08 06:39:51;;;;;;;1011.42;914.20;;;;;;;24.38;47.14;96775.38;2099405;28;20195;-61
2023/07/08 06:40:53;;;;;;;1046.20;915.33;;;;;;;24.39;47.01;96785.06;2099325;28;20202;-61
2023/07/08 06:43:24;;;;;;;955.67;867.20;;;;;;;24.32;47.71;96771.50;2083409;28;20834;-59
2023/07/08 06:45:59;;;;;;;902.90;817.45;;;;;;;24.39;47.93;96782.41;2109461;27;20910;-59
2023/07/08 06:48:33;;;;;;;1066.03;959.70;;;;;;;24.24;48.13;96777.59;2091172;28;20558;-59
2023/07/08 06:51:15;;;;;;;1142.95;971.97;;;;;;;24.15;48.43;96788.31;2092752;27;20559;-58
2023/07/08 06:53:49;;;;;;;1367.85;999.90;;;;;;;24.18;48.66;96791.53;2101205;27;20556;-59
2023/07/08 07:10:14;;;;;;;997.17;892.28;;;;;;;24.07;50.16;96794.41;2079307;28;20566;-59
2023/07/08 07:12:50;;;;;;;1001.05;899.40;;;;;;;24.17;50.21;96808.53;2084298;28;20903;-58
2023/07/08 07:15:31;;;;;;;942.28;848.67;;;;;;;24.31;50.45;96801.84;2082270;27;20569;-58
2023/07/08 07:18:16;;;;;;;679.70;608.13;;;;;;;24.34;49.88;96804.22;2099907;27;20553;-58
2023/07/08 07:20:57;;;;;;;692.95;618.97;;;;;;;24.20;50.29;96800.25;2103980;27;20555;-59
2023/07/08 07:23:43;;;;;;;990.35;887.78;;;;;;;24.17;50.07;96805.84;2091628;27;20571;-58
2023/07/08 07:26:14;;;;;;;992.20;889.10;;;;;;;24.20;50.74;96802.91;2084740;28;20599;-59
2023/07/08 07:27:15;;;;;;;949.97;851.00;;;;;;;24.24;50.49;96809.63;2081134;28;20200;-59
2023/07/08 07:29:51;;;;;;;1115.15;911.97;;;;;;;24.32;50.75;96803.53;2098372;27;21044;-61
2023/07/08 07:30:58;;;;;;;1162.07;935.45;;;;;;;24.53;50.57;96813.91;2091625;28;20196;-61
2023/07/08 07:31:59;;;;;;;1382.90;999.90;;;;;;;24.69;50.15;96805.22;2091487;28;20627;-59
2023/07/08 07:33:01;;;;;;;1223.57;971.55;;;;;;;24.89;49.99;96811.25;2087322;28;20690;-61
2023/07/08 07:34:03;;;;;;;994.17;884.80;;;;;;;25.15;49.31;96810.44;2088608;28;20347;-62
2023/07/08 07:35:05;;;;;;;836.85;751.25;;;;;;;25.31;48.52;96807.03;2091924;28;20254;-62
2023/07/08 07:36:07;;;;;;;691.85;622.70;;;;;;;25.15;48.50;96810.44;2090546;28;20200;-62
2023/07/08 07:37:14;;;;;;;1059.50;948.60;;;;;;;25.14;48.86;96808.78;2088884;28;20287;-61
2023/07/08 07:38:18;;;;;;;925.55;827.38;;;;;;;25.17;49.11;96811.13;2089380;28;20678;-59
2023/07/08 07:39:20;;;;;;;769.60;694.72;;;;;;;25.26;48.69;96812.03;2087010;28;20197;-59
2023/07/08 07:40:21;;;;;;;708.22;634.08;;;;;;;25.38;48.65;96809.94;2087565;28;20269;-59
2023/07/08 07:41:23;;;;;;;727.50;655.30;;;;;;;25.44;48.64;96809.31;2089882;28;20220;-59
2023/07/08 07:42:27;;;;;;;1708.20;999.90;;;;;;;25.65;47.32;96803.59;2091490;28;20259;-59
2023/07/08 07:43:28;;;;;;;1497.78;999.90;;;;;;;25.58;47.80;96811.41;2090813;28;20201;-59
2023/07/08 07:44:30;;;;;;;1543.93;999.90;;;;;;;26.00;46.90;96815.09;2091249;28;20231;-59
2023/07/08 07:45:31;;;;;;;1422.20;999.90;;;;;;;26.01;47.18;96816.78;2086215;28;20224;-59
2023/07/08 07:46:33;;;;;;;1428.65;999.90;;;;;;;26.29;47.21;96807.69;2087384;28;20311;-59
2023/07/08 07:47:35;;;;;;;985.65;895.13;;;;;;;26.21;46.19;96804.00;2086934;28;20192;-59
2023/07/08 07:48:37;;;;;;;1271.75;999.90;;;;;;;26.46;46.35;96808.56;2088998;28;20204;-59
2023/07/08 07:49:39;;;;;;;1300.85;999.90;;;;;;;26.48;46.63;96811.94;2091345;28;20365;-59
2023/07/08 07:50:45;;;;;;;1069.30;968.88;;;;;;;26.55;46.12;96805.75;2092360;28;20200;-59
2023/07/08 07:51:48;;;;;;;590.03;545.92;;;;;;;26.33;46.33;96804.50;2091046;28;20639;-59
2023/07/08 07:52:49;;;;;;;1066.32;958.97;;;;;;;26.38;46.90;96807.53;2089705;28;20196;-59
2023/07/08 07:53:51;;;;;;;73.53;67.50;;;;;;;26.11;46.44;96805.16;2092528;28;20184;-59
2023/07/08 07:54:53;;;;;;;153.13;141.77;;;;;;;26.07;46.66;96810.81;2090260;28;20286;-59
2023/07/08 07:56:00;;;;;;;198.88;184.48;;;;;;;26.56;45.77;96812.78;2087165;28;20228;-59
2023/07/08 07:57:02;;;;;;;497.50;460.73;;;;;;;26.80;45.68;96808.47;2088873;28;20246;-59
2023/07/08 07:58:04;;;;;;;774.42;714.08;;;;;;;27.05;45.76;96803.94;2089959;28;20196;-59
2023/07/08 07:59:06;;;;;;;50.38;45.55;;;;;;;26.99;44.94;96806.47;2088615;28;20193;-60
2023/07/08 08:00:11;;;;;;;11.07;4.00;;;;;;;26.85;45.10;96806.13;2086028;28;20262;-59
2023/07/08 08:01:13;;;;;;;13.55;4.18;;;;;;;26.99;45.08;96807.28;2090257;28;20287;-59
2023/07/08 08:02:15;;;;;;;12.18;4.05;;;;;;;27.20;44.89;96808.63;2088460;28;20242;-60
2023/07/08 08:03:17;;;;;;;18.17;4.50;;;;;;;26.92;44.25;96800.94;2088948;28;20778;-59
2023/07/08 08:04:22;;;;;;;9.88;3.60;;;;;;;27.07;44.92;96808.28;2089081;28;20224;-59
2023/07/08 08:05:24;;;;;;;11.88;3.50;;;;;;;26.75;45.08;96808.13;2088919;28;20227;-59
2023/07/08 08:06:25;;;;;;;14.98;2.97;;;;;;;26.51;45.72;96804.41;2090062;28;20201;-59
2023/07/08 08:07:27;;;;;;;12.77;3.20;;;;;;;26.24;45.61;96798.34;2088276;28;20811;-59
2023/07/08 08:08:28;;;;;;;7.72;2.92;;;;;;;26.34;45.47;96803.53;2088297;28;20604;-59
2023/07/08 08:09:30;;;;;;;7.55;3.05;;;;;;;26.25;45.47;96801.84;2090781;28;20212;-60
2023/07/08 08:10:33;;;;;;;16.75;3.90;;;;;;;26.33;45.87;96807.19;2090041;28;20890;-59
2023/07/08 08:11:34;;;;;;;9.90;3.13;;;;;;;26.42;45.39;96808.06;2090168;28;20368;-59
2023/07/08 08:12:35;;;;;;;8.77;3.08;;;;;;;26.51;44.90;96807.09;2086929;28;20245;-59
2023/07/08 08:13:53;;;;;;;8.75;3.00;;;;;;;26.54;44.76;96808.59;2090998;28;20200;-59
2023/07/08 08:14:55;;;;;;;6.63;2.38;;;;;;;26.47;44.85;96805.72;2089382;28;20749;-59
2023/07/08 08:15:59;;;;;;;8.27;2.85;;;;;;;26.37;44.83;96810.38;2088938;28;20887;-59
2023/07/08 08:17:02;;;;;;;13.75;3.33;;;;;;;26.63;44.28;96812.94;2089933;28;20197;-59
2023/07/08 08:18:03;;;;;;;6.45;2.30;;;;;;;26.87;44.31;96812.16;2091201;28;20274;-59
2023/07/08 08:19:05;;;;;;;7.55;2.50;;;;;;;27.28;43.27;96808.59;2091042;28;20235;-59
2023/07/08 08:20:09;;;;;;;8.30;3.10;;;;;;;27.43;43.11;96808.78;2095435;28;20227;-60
2023/07/08 08:21:11;;;;;;;7.70;2.67;;;;;;;27.77;43.18;96807.69;2100205;28;20712;-59
2023/07/08 08:22:13;;;;;;;11.50;2.90;;;;;;;27.76;43.22;96807.88;2100168;28;20195;-59
2023/07/08 08:23:15;;;;;;;8.77;2.13;;;;;;;27.82;42.69;96813.38;2098881;28;20299;-59
2023/07/08 08:24:16;;;;;;;7.88;3.10;;;;;;;27.97;42.99;96809.94;2099728;28;20249;-59
2023/07/08 08:25:21;;;;;;;6.45;2.85;;;;;;;28.03;42.26;96801.22;2097694;28;20343;-59
2023/07/08 08:26:22;;;;;;;6.13;2.88;;;;;;;28.22;42.74;96804.50;2098926;28;20208;-60
2023/07/08 08:27:24;;;;;;;7.85;2.45;;;;;;;28.61;41.85;96806.28;2097970;28;20601;-60
2023/07/08 08:28:25;;;;;;;6.95;2.90;;;;;;;28.41;41.10;96804.03;2099255;28;20318;-60
2023/07/08 08:29:27;;;;;;;7.95;2.95;;;;;;;28.18;41.65;96809.38;2098766;28;20254;-60
2023/07/08 08:30:28;;;;;;;8.52;3.17;;;;;;;28.40;40.36;96805.03;2097830;28;20229;-60
2023/07/08 08:31:31;;;;;;;3.85;2.05;;;;;;;28.28;40.39;96801.13;2098914;28;20403;-60
2023/07/08 08:32:33;;;;;;;4.07;2.22;;;;;;;28.84;40.24;96800.94;2099779;28;20227;-59
2023/07/08 08:33:34;;;;;;;7.00;2.97;;;;;;;28.88;39.56;96804.91;2100456;28;20240;-60
2023/07/08 08:34:36;;;;;;;4.43;2.25;;;;;;;28.71;39.70;96803.38;2098259;28;20243;-60
2023/07/08 08:35:37;;;;;;;16.90;3.30;;;;;;;28.47;40.13;96799.81;2098683;28;20199;-60
2023/07/08 08:36:38;;;;;;;7.55;2.55;;;;;;;28.14;40.62;96800.00;2098584;28;20194;-59
2023/07/08 08:37:40;;;;;;;8.93;3.40;;;;;;;28.58;40.58;96799.41;2098410;28;20202;-60
2023/07/08 08:38:41;;;;;;;6.90;2.45;;;;;;;28.56;40.19;96805.97;2099190;28;20200;-60
2023/07/08 08:39:43;;;;;;;4.55;2.25;;;;;;;28.30;41.03;96802.59;2098593;28;20702;-60
2023/07/08 08:40:45;;;;;;;9.00;2.50;;;;;;;28.56;40.35;96800.59;2091737;28;20888;-60
2023/07/08 08:41:49;;;;;;;6.55;2.45;;;;;;;28.72;39.76;96805.03;2094752;28;21134;-60
2023/07/08 08:43:04;;;;;;;9.75;2.58;;;;;;;28.61;39.57;96811.66;2090070;28;20831;-60
2023/07/08 08:44:10;;;;;;;8.50;2.30;;;;;;;28.65;39.58;96805.72;2092603;28;20208;-60
2023/07/08 08:45:16;;;;;;;3.35;1.75;;;;;;;28.78;39.01;96802.47;2091640;28;20310;-60
2023/07/08 08:46:39;;;;;;;8.43;2.78;;;;;;;28.82;39.23;96802.94;2094503;28;20200;-60
2023/07/08 08:47:53;;;;;;;6.38;2.35;;;;;;;28.57;39.05;96804.94;2094208;28;20596;-60
2023/07/08 08:49:01;;;;;;;4.45;1.92;;;;;;;28.72;38.62;96807.72;2093044;28;20207;-60
2023/07/08 08:50:30;;;;;;;5.40;2.50;;;;;;;28.29;39.56;96798.25;2090864;28;20698;-60
2023/07/08 08:51:32;;;;;;;12.15;3.00;;;;;;;28.37;39.60;96805.41;2093172;28;20203;-60
2023/07/08 08:52:41;;;;;;;4.72;2.50;;;;;;;28.78;39.63;96802.47;2093048;28;20246;-60
2023/07/08 08:53:45;;;;;;;5.65;2.03;;;;;;;29.02;39.06;96800.59;2092607;28;20196;-60
2023/07/08 08:54:50;;;;;;;7.85;2.38;;;;;;;28.72;39.52;96811.25;2091903;28;20188;-59
2023/07/08 08:56:15;;;;;;;3.92;1.88;;;;;;;28.55;39.69;96812.34;2089340;28;20727;-60
2023/07/08 08:57:41;;;;;;;7.07;2.53;;;;;;;28.97;38.72;96813.75;2091963;28;20246;-60
2023/07/08 08:59:24;;;;;;;4.05;2.00;;;;;;;29.32;38.34;96806.91;2091334;28;20224;-59
2023/07/08 09:00:39;;;;;;;5.72;2.42;;;;;;;29.99;37.80;96804.31;2093035;28;20270;-60
2023/07/08 09:01:41;;;;;;;7.10;1.93;;;;;;;30.09;36.84;96806.72;2094953;28;20252;-60
2023/07/08 09:02:57;;;;;;;4.40;1.97;;;;;;;30.27;37.56;96807.19;2093386;28;20430;-60
2023/07/08 09:04:05;;;;;;;3.30;1.77;;;;;;;30.03;37.64;96808.34;2093126;28;20433;-60
2023/07/08 09:05:10;;;;;;;6.60;2.07;;;;;;;29.70;37.89;96807.84;2092080;28;20498;-60
2023/07/08 09:06:16;;;;;;;4.90;2.30;;;;;;;29.61;38.24;96816.03;2091974;28;20839;-60
2023/07/08 09:07:20;;;;;;;3.73;2.37;;;;;;;29.81;38.25;96810.06;2093170;28;20827;-60
2023/07/08 09:08:32;;;;;;;5.47;2.57;;;;;;;30.21;38.08;96813.31;2089384;28;20425;-60
2023/07/08 09:09:56;;;;;;;9.07;2.40;;;;;;;30.11;37.53;96810.09;2090280;28;20435;-60
2023/07/08 09:11:07;;;;;;;9.30;2.40;;;;;;;30.13;37.58;96814.25;2092500;28;20456;-60
2023/07/08 09:12:21;;;;;;;12.60;2.70;;;;;;;30.04;37.59;96812.72;2094742;28;20424;-60
2023/07/08 09:13:29;;;;;;;5.47;2.03;;;;;;;30.63;37.80;96810.91;2092820;28;20432;-60
2023/07/08 09:14:34;;;;;;;8.80;2.10;;;;;;;31.02;37.38;96817.69;2092838;28;20482;-60
2023/07/08 09:15:37;;;;;;;6.90;2.97;;;;;;;30.88;36.74;96811.34;2091238;28;20519;-60
2023/07/08 09:17:13;;;;;;;4.03;2.43;;;;;;;30.55;36.13;96816.41;2093053;28;20842;-60
2023/07/08 09:18:23;;;;;;;4.60;2.17;;;;;;;30.13;36.55;96814.25;2092694;28;20429;-60
2023/07/08 09:19:32;;;;;;;4.83;1.60;;;;;;;30.35;36.97;96813.44;2092049;28;20474;-60
2023/07/08 09:20:35;;;;;;;5.60;2.13;;;;;;;30.03;37.05;96810.19;2088358;28;20863;-60
2023/07/08 09:21:41;;;;;;;6.10;2.40;;;;;;;29.50;37.78;96813.78;2092245;28;20428;-60
2023/07/08 09:22:50;;;;;;;7.20;2.70;;;;;;;29.81;38.14;96810.06;2092135;28;20474;-60
2023/07/08 09:24:00;;;;;;;5.70;2.40;;;;;;;30.01;37.57;96807.69;2092680;28;20429;-60
2023/07/08 09:25:24;;;;;;;5.37;2.80;;;;;;;29.59;37.47;96809.16;2095554;28;20448;-60
2023/07/08 09:26:28;;;;;;;4.10;1.73;;;;;;;29.09;38.07;96809.63;2093869;28;20515;-60
2023/07/08 09:27:30;;;;;;;6.97;3.20;;;;;;;28.88;37.95;96807.59;2092585;28;20421;-60
2023/07/08 09:28:45;;;;;;;8.10;3.67;;;;;;;29.63;37.51;96802.38;2091101;28;21262;-60
2023/07/08 09:29:46;;;;;;;5.47;2.50;;;;;;;29.50;37.49;96805.72;2092289;28;20429;-59
2023/07/08 09:30:53;;;;;;;7.00;2.20;;;;;;;29.92;37.79;96812.31;2091219;28;20456;-60
2023/07/08 09:31:55;;;;;;;3.43;1.90;;;;;;;29.51;37.78;96814.63;2090696;28;20452;-60
2023/07/08 09:33:01;;;;;;;8.93;2.57;;;;;;;29.72;36.98;96803.13;2094244;28;20443;-60
2023/07/08 09:34:13;;;;;;;4.33;2.07;;;;;;;29.91;37.34;96797.19;2093511;28;21121;-60
2023/07/08 09:35:46;;;;;;;4.13;1.70;;;;;;;30.45;36.60;96804.06;2090086;28;20465;-60
2023/07/08 09:36:49;;;;;;;5.30;2.07;;;;;;;30.94;36.13;96809.72;2089468;28;20441;-60
2023/07/08 09:37:50;;;;;;;4.40;2.20;;;;;;;30.45;36.35;96806.75;2090836;28;20466;-60
2023/07/08 09:38:52;;;;;;;4.23;1.47;;;;;;;30.70;36.43;96802.88;2088848;28;20429;-60
2023/07/08 09:39:55;;;;;;;4.60;1.90;;;;;;;30.82;36.50;96804.03;2092002;28;20424;-60
2023/07/08 09:40:56;;;;;;;3.90;1.70;;;;;;;30.36;36.16;96805.22;2091994;28;20425;-60
2023/07/08 09:42:07;;;;;;;5.83;2.40;;;;;;;30.04;36.29;96809.16;2091293;28;20421;-60
2023/07/08 09:43:09;;;;;;;4.60;1.50;;;;;;;29.85;36.75;96811.38;2091182;28;20823;-60
2023/07/08 09:44:16;;;;;;;6.00;1.87;;;;;;;29.97;37.09;96811.78;2093779;28;20994;-60
2023/07/08 09:45:24;;;;;;;4.03;2.30;;;;;;;30.01;36.77;96807.69;2091261;28;20458;-60
2023/07/08 09:46:25;;;;;;;4.40;1.50;;;;;;;30.51;36.32;96804.34;2092446;28;20841;-60
2023/07/08 09:47:34;;;;;;;4.50;1.90;;;;;;;31.38;35.55;96811.38;2092281;28;20494;-60
2023/07/08 09:48:37;;;;;;;5.17;2.20;;;;;;;31.71;34.79;96807.25;2092391;28;20527;-59
2023/07/08 09:49:38;;;;;;;10.20;2.30;;;;;;;31.63;35.01;96802.84;2088546;28;20472;-60
2023/07/08 09:50:43;;;;;;;8.20;2.40;;;;;;;31.78;34.96;96809.97;2089245;28;20453;-60
2023/07/08 09:51:46;;;;;;;3.30;1.87;;;;;;;31.13;35.31;96805.56;2092829;28;20421;-60
2023/07/08 09:52:48;;;;;;;4.13;1.80;;;;;;;31.08;35.20;96802.63;2090774;28;20433;-60
2023/07/08 09:53:50;;;;;;;4.00;1.63;;;;;;;31.39;34.83;96802.25;2091296;28;21106;-60
2023/07/08 09:54:52;;;;;;;6.70;2.37;;;;;;;31.25;34.64;96800.50;2090886;28;21034;-60
2023/07/08 09:55:56;;;;;;;3.37;1.80;;;;;;;31.24;34.81;96801.53;2093408;28;20420;-60
2023/07/08 09:57:09;;;;;;;8.30;1.80;;;;;;;31.23;34.98;96800.66;2092121;28;20531;-60
2023/07/08 09:58:24;;;;;;;3.60;1.67;;;;;;;31.32;34.66;96801.34;2091138;28;20444;-60
2023/07/08 09:59:32;;;;;;;8.27;2.17;;;;;;;31.89;34.33;96802.16;2093019;28;20428;-60
2023/07/08 10:00:40;;;;;;;4.60;1.63;;;;;;;32.17;34.19;96805.81;2093196;28;20484;-60
2023/07/08 10:01:42;;;;;;;4.53;2.07;;;;;;;32.24;34.00;96801.31;2091893;28;20421;-60
2023/07/08 10:02:58;;;;;;;4.43;2.20;;;;;;;32.33;34.43;96801.94;2093173;28;20900;-60
2023/07/08 10:04:01;;;;;;;3.63;1.97;;;;;;;31.91;33.88;96793.88;2092346;28;21086;-60
2023/07/08 10:05:22;;;;;;;3.57;1.70;;;;;;;31.45;34.50;96800.59;2091453;28;20487;-60
2023/07/08 10:06:30;;;;;;;5.47;1.87;;;;;;;31.59;34.17;96804.22;2091473;28;20959;-60
2023/07/08 10:07:31;;;;;;;3.50;1.67;;;;;;;31.33;34.19;96792.25;2094143;28;20429;-60
2023/07/08 10:08:43;;;;;;;3.27;1.83;;;;;;;31.36;34.30;96794.56;2092543;28;21084;-59
2023/07/08 10:09:50;;;;;;;3.30;1.67;;;;;;;31.60;34.38;96795.09;2090738;28;20523;-60
2023/07/08 10:11:03;;;;;;;6.33;1.40;;;;;;;31.66;34.02;96794.34;2091389;28;20535;-60
2023/07/08 10:12:11;;;;;;;4.43;1.40;;;;;;;31.70;33.92;96792.91;2091043;28;20539;-60
2023/07/08 10:13:38;;;;;;;4.57;1.60;;;;;;;31.86;33.90;96797.16;2095722;28;20429;-60
2023/07/08 10:14:47;;;;;;;5.20;2.00;;;;;;;31.73;33.46;96800.63;2094659;28;21139;-59
2023/07/08 10:16:13;;;;;;;3.77;2.03;;;;;;;31.80;34.29;96797.94;2092145;28;20508;-60
2023/07/08 10:17:17;;;;;;;6.23;1.90;;;;;;;31.90;33.39;96786.78;2090602;28;20425;-60
2023/07/08 10:18:27;;;;;;;16.20;3.80;;;;;;;32.46;33.15;96799.28;2091164;28;20978;-60
2023/07/08 10:19:29;;;;;;;5.30;2.00;;;;;;;32.15;33.55;96802.47;2092959;28;20430;-60
2023/07/08 10:20:50;;;;;;;3.60;1.50;;;;;;;32.29;33.34;96796.13;2090547;28;20835;-60
2023/07/08 10:22:37;;;;;;;5.93;2.00;;;;;;;31.66;34.67;96799.75;2091231;28;20422;-60
2023/07/08 10:23:54;;;;;;;3.10;1.90;;;;;;;31.08;35.80;96802.63;2088801;28;20422;-59
2023/07/08 10:25:01;;;;;;;7.70;2.67;;;;;;;31.15;35.97;96799.97;2088274;28;20594;-59
2023/07/08 10:26:14;;;;;;;3.30;2.00;;;;;;;31.01;36.23;96799.84;2090938;28;20432;-59
2023/07/08 10:27:23;;;;;;;6.27;2.10;;;;;;;30.79;35.63;96799.03;2094235;28;20435;-59
2023/07/08 10:28:33;;;;;;;4.93;2.53;;;;;;;30.77;36.49;96793.81;2093390;28;20424;-59
2023/07/08 10:29:48;;;;;;;5.17;1.90;;;;;;;30.87;36.41;96800.78;2091928;28;21063;-59
2023/07/08 10:31:15;;;;;;;5.30;2.30;;;;;;;31.30;35.19;96800.75;2092158;28;20543;-60
2023/07/08 10:32:22;;;;;;;10.93;2.40;;;;;;;30.70;36.03;96794.78;2092175;28;20429;-59
2023/07/08 10:33:53;;;;;;;6.07;3.67;;;;;;;31.72;36.50;96792.75;2092939;28;20447;-60
2023/07/08 10:35:17;;;;;;;12.50;4.20;;;;;;;32.05;36.39;96795.59;2095137;28;20550;-60
2023/07/08 10:36:28;;;;;;;13.10;3.60;;;;;;;32.41;35.72;96790.97;2086675;28;20437;-60
2023/07/08 10:37:47;;;;;;;9.90;3.30;;;;;;;32.39;35.83;96785.75;2089480;28;21152;-60
2023/07/08 10:39:12;;;;;;;6.80;4.03;;;;;;;32.85;35.20;96794.19;2088822;28;20425;-60
2023/07/08 10:40:29;;;;;;;8.23;4.23;;;;;;;33.46;34.89;96789.59;2088662;28;20799;-60
2023/07/08 10:41:51;;;;;;;8.67;3.90;;;;;;;32.82;35.51;96789.19;2093313;28;20425;-59
2023/07/08 10:43:00;;;;;;;7.07;4.33;;;;;;;32.67;34.77;96784.78;2092826;28;20468;-60
2023/07/08 10:44:12;;;;;;;5.70;3.27;;;;;;;32.55;35.10;96792.63;2092370;28;20462;-60
2023/07/08 10:45:44;;;;;;;10.90;4.37;;;;;;;33.03;34.93;96785.47;2088180;28;20967;-60
2023/07/08 10:46:59;;;;;;;5.83;3.73;;;;;;;32.85;34.65;96794.19;2089872;28;20444;-60
2023/07/08 10:48:38;;;;;;;11.80;3.60;;;;;;;32.78;34.72;96796.06;2092579;28;20481;-60
2023/07/08 10:50:13;;;;;;;10.37;4.23;;;;;;;33.22;34.32;96789.19;2090081;28;20428;-60
2023/07/08 10:51:29;;;;;;;8.97;4.40;;;;;;;33.30;34.51;96788.19;2088512;28;20835;-60
2023/07/08 10:52:55;;;;;;;10.70;4.07;;;;;;;32.79;34.70;96797.72;2090384;28;20420;-60
2023/07/08 10:54:14;;;;;;;7.33;3.70;;;;;;;32.25;35.19;96789.44;2092731;28;20421;-60
2023/07/08 10:55:44;;;;;;;5.83;3.40;;;;;;;32.10;35.75;96792.28;2092202;28;20982;-59
2023/07/08 10:57:02;;;;;;;8.47;3.20;;;;;;;32.04;35.81;96791.22;2092617;28;20528;-60
2023/07/08 10:58:28;;;;;;;6.43;3.87;;;;;;;32.00;35.45;96784.56;2093847;28;20428;-60
2023/07/08 10:59:44;;;;;;;6.13;3.90;;;;;;;32.63;35.52;96790.78;2091557;28;20468;-60
2023/07/08 11:00:52;;;;;;;7.03;4.00;;;;;;;33.50;34.86;96783.56;2091499;28;20441;-60
2023/07/08 11:02:21;;;;;;;6.47;4.27;;;;;;;33.73;34.44;96792.28;2091681;28;20424;-60
2023/07/08 11:03:39;;;;;;;10.23;3.90;;;;;;;33.93;34.11;96790.34;2092057;28;20443;-60
2023/07/08 11:04:56;;;;;;;5.50;3.53;;;;;;;34.22;33.93;96790.88;2091536;28;20444;-60
2023/07/08 11:06:13;;;;;;;6.50;3.20;;;;;;;33.85;34.06;96793.28;2093366;28;20429;-60
2023/07/08 11:07:41;;;;;;;6.10;4.03;;;;;;;33.45;34.55;96787.97;2092344;28;20424;-60
2023/07/08 11:08:47;;;;;;;6.03;3.47;;;;;;;33.13;34.34;96796.69;2091720;28;20433;-60
2023/07/08 11:10:05;;;;;;;5.90;3.47;;;;;;;32.77;34.77;96795.19;2090183;28;20420;-60
2023/07/08 11:11:14;;;;;;;11.53;3.90;;;;;;;32.14;35.68;96790.00;2091123;28;20477;-60
2023/07/08 11:12:35;;;;;;;9.33;3.50;;;;;;;32.12;35.94;96792.09;2090846;28;20421;-60
2023/07/08 11:13:45;;;;;;;6.90;3.47;;;;;;;32.04;36.30;96788.50;2091221;28;20437;-60
2023/07/08 11:14:51;;;;;;;11.80;3.13;;;;;;;32.03;35.90;96792.25;2091842;28;21007;-60
2023/07/08 11:16:05;;;;;;;4.80;2.80;;;;;;;31.91;35.85;96783.88;2092100;28;20969;-60
2023/07/08 11:17:24;;;;;;;6.73;3.30;;;;;;;31.88;36.26;96780.75;2091633;28;20425;-60
2023/07/08 11:18:42;;;;;;;7.43;3.83;;;;;;;32.31;35.51;96783.22;2090494;28;20425;-60
2023/07/08 11:19:52;;;;;;;9.80;4.30;;;;;;;32.79;35.40;96786.91;2091525;28;20433;-60
2023/07/08 11:21:03;;;;;;;5.70;3.33;;;;;;;33.21;34.48;96782.13;2090853;28;20479;-60
2023/07/08 11:22:10;;;;;;;6.90;3.87;;;;;;;33.28;34.59;96780.28;2092209;28;20416;-60
2023/07/08 11:23:33;;;;;;;9.20;3.17;;;;;;;32.98;34.99;96783.38;2091876;28;20429;-59
2023/07/08 11:24:53;;;;;;;10.20;3.87;;;;;;;32.62;35.38;96789.13;2089491;28;20601;-60
2023/07/08 11:26:07;;;;;;;6.93;4.07;;;;;;;31.99;35.47;96790.16;2090320;28;20791;-60
2023/07/08 11:27:19;;;;;;;6.90;3.60;;;;;;;31.95;36.10;96787.03;2093402;28;20957;-59
2023/07/08 11:28:23;;;;;;;8.57;3.33;;;;;;;31.78;35.73;96785.69;2092239;28;20841;-60
2023/07/08 11:29:48;;;;;;;5.40;3.50;;;;;;;31.65;36.48;96797.25;2090800;28;20468;-59
2023/07/08 11:30:51;;;;;;;13.20;4.00;;;;;;;31.67;36.40;96790.63;2092590;28;20467;-60
2023/07/08 11:31:55;;;;;;;8.00;3.67;;;;;;;31.70;36.27;96801.00;2092031;28;20428;-59
2023/07/08 11:33:09;;;;;;;7.23;4.20;;;;;;;31.29;37.19;96790.13;2091092;28;20547;-60
2023/07/08 11:34:12;;;;;;;7.13;3.73;;;;;;;31.33;37.08;96786.84;2091260;28;20900;-60
2023/07/08 11:35:21;;;;;;;7.40;4.13;;;;;;;31.31;37.14;96788.91;2092067;28;21004;-60
2023/07/08 11:36:24;;;;;;;10.27;4.20;;;;;;;31.53;36.84;96788.84;2089652;28;20429;-59
2023/07/08 11:37:28;;;;;;;6.87;3.57;;;;;;;31.47;36.26;96786.94;2088226;28;20429;-60
2023/07/08 11:38:33;;;;;;;12.27;3.93;;;;;;;31.32;37.14;96785.19;2088472;28;20441;-59
2023/07/08 11:39:42;;;;;;;6.07;3.40;;;;;;;31.23;37.05;96783.66;2092559;28;20427;-59
2023/07/08 11:40:51;;;;;;;8.03;3.67;;;;;;;31.22;36.76;96790.09;2092090;28;20433;-60
2023/07/08 11:42:03;;;;;;;10.47;4.53;;;;;;;30.98;37.48;96785.94;2094856;28;20770;-59
2023/07/08 11:43:06;;;;;;;6.40;3.40;;;;;;;30.89;37.27;96783.38;2095541;28;20499;-60
2023/07/08 11:44:11;;;;;;;10.57;4.20;;;;;;;31.00;37.40;96779.31;2091963;28;20428;-60
2023/07/08 11:45:35;;;;;;;10.57;3.40;;;;;;;31.01;37.19;96777.44;2091369;28;20461;-59
2023/07/08 11:46:54;;;;;;;6.80;3.77;;;;;;;31.71;36.89;96786.50;2092416;28;20424;-59